sensor_id;sensor_type;location;lat;lon;timestamp;P1;durP1;ratioP1;P2;durP2;ratioP2
72337;SDS011;60294;64.134;-21.862;2022-12-07T00:01:17;2.73;;;1.00;;
72337;SDS011;60294;64.134;-21.862;2022-12-07T00:03:45;2.63;;;1.10;;
72337;SDS011;60294;64.134;-21.862;2022-12-07T00:06:13;8.13;;;2.37;;
72337;SDS011;60294;64.134;-21.862;2022-12-07T00:08:41;7.70;;;1.93;;
72337;SDS011;60294;64.134;-21.862;2022-12-07T00:11:08;2.73;;;1.23;;
72337;SDS011;60294;64.134;-21.862;2022-12-07T00:13:36;1.67;;;0.93;;
72337;SDS011;60294;64.134;-21.862;2022-12-07T00:16:03;3.03;;;1.27;;
72337;SDS011;60294;64.134;-21.862;2022-12-07T00:18:31;4.13;;;0.80;;
72337;SDS011;60294;64.134;-21.862;2022-12-07T00:21:00;2.00;;;0.67;;
72337;SDS011;60294;64.134;-21.862;2022-12-07T00:23:31;2.13;;;0.73;;
72337;SDS011;60294;64.134;-21.862;2022-12-07T00:26:08;0.50;;;0.30;;
72337;SDS011;60294;64.134;-21.862;2022-12-07T00:28:48;2.90;;;0.60;;
72337;SDS011;60294;64.134;-21.862;2022-12-07T00:31:16;1.23;;;0.37;;
72337;SDS011;60294;64.134;-21.862;2022-12-07T00:33:43;3.33;;;0.80;;
72337;SDS011;60294;64.134;-21.862;2022-12-07T00:36:10;0.30;;;0.30;;
72337;SDS011;60294;64.134;-21.862;2022-12-07T00:38:40;2.07;;;0.40;;
72337;SDS011;60294;64.134;-21.862;2022-12-07T00:41:08;0.57;;;0.30;;
72337;SDS011;60294;64.134;-21.862;2022-12-07T00:43:36;3.47;;;0.60;;
72337;SDS011;60294;64.134;-21.862;2022-12-07T00:46:02;1.33;;;0.50;;
72337;SDS011;60294;64.134;-21.862;2022-12-07T00:48:27;0.37;;;0.30;;
72337;SDS011;60294;64.134;-21.862;2022-12-07T00:50:53;1.77;;;0.40;;
72337;SDS011;60294;64.134;-21.862;2022-12-07T00:53:19;3.90;;;0.60;;
72337;SDS011;60294;64.134;-21.862;2022-12-07T00:55:45;2.40;;;0.50;;
72337;SDS011;60294;64.134;-21.862;2022-12-07T00:58:11;1.07;;;0.50;;
72337;SDS011;60294;64.134;-21.862;2022-12-07T01:00:38;2.40;;;0.50;;
72337;SDS011;60294;64.134;-21.862;2022-12-07T01:03:05;3.53;;;1.00;;
72337;SDS011;60294;64.134;-21.862;2022-12-07T01:05:33;2.87;;;0.53;;
72337;SDS011;60294;64.134;-21.862;2022-12-07T01:07:59;0.73;;;0.50;;
72337;SDS011;60294;64.134;-21.862;2022-12-07T01:10:25;2.73;;;0.50;;
72337;SDS011;60294;64.134;-21.862;2022-12-07T01:12:51;1.23;;;0.40;;
72337;SDS011;60294;64.134;-21.862;2022-12-07T01:15:17;0.30;;;0.30;;
72337;SDS011;60294;64.134;-21.862;2022-12-07T01:17:43;0.30;;;0.30;;
72337;SDS011;60294;64.134;-21.862;2022-12-07T01:20:09;0.53;;;0.30;;
72337;SDS011;60294;64.134;-21.862;2022-12-07T01:22:39;1.50;;;0.40;;
72337;SDS011;60294;64.134;-21.862;2022-12-07T01:25:06;1.30;;;0.33;;
72337;SDS011;60294;64.134;-21.862;2022-12-07T01:27:33;0.87;;;0.40;;
72337;SDS011;60294;64.134;-21.862;2022-12-07T01:30:00;0.30;;;0.30;;
72337;SDS011;60294;64.134;-21.862;2022-12-07T01:32:27;0.67;;;0.37;;
72337;SDS011;60294;64.134;-21.862;2022-12-07T01:34:54;0.73;;;0.30;;
72337;SDS011;60294;64.134;-21.862;2022-12-07T01:37:19;0.37;;;0.37;;
72337;SDS011;60294;64.134;-21.862;2022-12-07T01:39:48;2.00;;;0.40;;
72337;SDS011;60294;64.134;-21.862;2022-12-07T01:42:14;1.50;;;0.60;;
72337;SDS011;60294;64.134;-21.862;2022-12-07T01:47:47;2.00;;;1.37;;
72337;SDS011;60294;64.134;-21.862;2022-12-07T01:50:18;1.47;;;0.70;;
72337;SDS011;60294;64.134;-21.862;2022-12-07T01:52:46;1.40;;;0.53;;
72337;SDS011;60294;64.134;-21.862;2022-12-07T01:55:15;2.43;;;0.73;;
72337;SDS011;60294;64.134;-21.862;2022-12-07T01:57:43;1.13;;;0.50;;
72337;SDS011;60294;64.134;-21.862;2022-12-07T02:00:13;1.57;;;0.47;;
72337;SDS011;60294;64.134;-21.862;2022-12-07T02:02:41;1.23;;;0.60;;
72337;SDS011;60294;64.134;-21.862;2022-12-07T02:05:12;2.73;;;0.97;;
72337;SDS011;60294;64.134;-21.862;2022-12-07T02:07:39;3.33;;;0.67;;
72337;SDS011;60294;64.134;-21.862;2022-12-07T02:10:12;2.70;;;0.60;;
72337;SDS011;60294;64.134;-21.862;2022-12-07T02:12:40;0.70;;;0.37;;
72337;SDS011;60294;64.134;-21.862;2022-12-07T02:15:06;1.23;;;0.60;;
72337;SDS011;60294;64.134;-21.862;2022-12-07T02:17:36;0.30;;;0.30;;
72337;SDS011;60294;64.134;-21.862;2022-12-07T02:26:01;2.43;;;0.60;;
72337;SDS011;60294;64.134;-21.862;2022-12-07T02:31:36;2.30;;;1.00;;
72337;SDS011;60294;64.134;-21.862;2022-12-07T02:36:55;3.87;;;1.20;;
72337;SDS011;60294;64.134;-21.862;2022-12-07T02:39:30;2.27;;;0.80;;
72337;SDS011;60294;64.134;-21.862;2022-12-07T02:42:02;6.40;;;1.07;;
72337;SDS011;60294;64.134;-21.862;2022-12-07T02:44:37;7.13;;;1.03;;
72337;SDS011;60294;64.134;-21.862;2022-12-07T02:47:05;2.03;;;1.07;;
72337;SDS011;60294;64.134;-21.862;2022-12-07T02:49:35;4.17;;;1.30;;
72337;SDS011;60294;64.134;-21.862;2022-12-07T02:52:05;6.37;;;1.53;;
72337;SDS011;60294;64.134;-21.862;2022-12-07T02:54:30;2.37;;;0.97;;
72337;SDS011;60294;64.134;-21.862;2022-12-07T03:02:25;2.00;;;1.13;;
72337;SDS011;60294;64.134;-21.862;2022-12-07T03:10:16;2.40;;;0.87;;
72337;SDS011;60294;64.134;-21.862;2022-12-07T03:18:27;1.40;;;0.70;;
72337;SDS011;60294;64.134;-21.862;2022-12-07T03:20:58;4.37;;;0.90;;
72337;SDS011;60294;64.134;-21.862;2022-12-07T03:23:29;1.60;;;0.70;;
72337;SDS011;60294;64.134;-21.862;2022-12-07T03:26:00;1.10;;;0.60;;
72337;SDS011;60294;64.134;-21.862;2022-12-07T03:28:29;2.57;;;1.03;;
72337;SDS011;60294;64.134;-21.862;2022-12-07T03:36:29;2.37;;;0.70;;
72337;SDS011;60294;64.134;-21.862;2022-12-07T03:41:40;3.47;;;0.97;;
72337;SDS011;60294;64.134;-21.862;2022-12-07T03:44:06;1.97;;;0.67;;
72337;SDS011;60294;64.134;-21.862;2022-12-07T03:55:02;5.17;;;1.10;;
72337;SDS011;60294;64.134;-21.862;2022-12-07T03:57:29;4.53;;;1.13;;
72337;SDS011;60294;64.134;-21.862;2022-12-07T03:59:57;4.90;;;0.93;;
72337;SDS011;60294;64.134;-21.862;2022-12-07T04:02:23;1.17;;;0.63;;
72337;SDS011;60294;64.134;-21.862;2022-12-07T04:04:51;2.50;;;1.10;;
72337;SDS011;60294;64.134;-21.862;2022-12-07T04:07:17;1.30;;;0.63;;
72337;SDS011;60294;64.134;-21.862;2022-12-07T04:09:43;3.50;;;0.57;;
72337;SDS011;60294;64.134;-21.862;2022-12-07T04:12:09;3.03;;;0.70;;
72337;SDS011;60294;64.134;-21.862;2022-12-07T04:14:34;1.00;;;0.50;;
72337;SDS011;60294;64.134;-21.862;2022-12-07T04:17:00;1.90;;;0.73;;
72337;SDS011;60294;64.134;-21.862;2022-12-07T04:19:30;1.53;;;0.93;;
72337;SDS011;60294;64.134;-21.862;2022-12-07T04:21:57;1.87;;;0.60;;
72337;SDS011;60294;64.134;-21.862;2022-12-07T04:24:24;2.90;;;0.90;;
72337;SDS011;60294;64.134;-21.862;2022-12-07T04:26:50;5.50;;;1.17;;
72337;SDS011;60294;64.134;-21.862;2022-12-07T04:29:17;1.10;;;0.63;;
72337;SDS011;60294;64.134;-21.862;2022-12-07T04:31:43;2.50;;;0.87;;
72337;SDS011;60294;64.134;-21.862;2022-12-07T04:34:09;1.60;;;0.70;;
72337;SDS011;60294;64.134;-21.862;2022-12-07T04:36:35;1.07;;;0.80;;
72337;SDS011;60294;64.134;-21.862;2022-12-07T04:39:02;1.70;;;0.80;;
72337;SDS011;60294;64.134;-21.862;2022-12-07T04:41:30;2.57;;;0.60;;
72337;SDS011;60294;64.134;-21.862;2022-12-07T04:43:57;2.43;;;1.17;;
72337;SDS011;60294;64.134;-21.862;2022-12-07T04:46:25;1.90;;;0.83;;
72337;SDS011;60294;64.134;-21.862;2022-12-07T04:48:52;2.43;;;0.97;;
72337;SDS011;60294;64.134;-21.862;2022-12-07T04:51:20;4.67;;;0.90;;
72337;SDS011;60294;64.134;-21.862;2022-12-07T04:53:48;2.50;;;0.97;;
72337;SDS011;60294;64.134;-21.862;2022-12-07T04:56:15;4.03;;;0.70;;
72337;SDS011;60294;64.134;-21.862;2022-12-07T04:58:42;1.87;;;0.80;;
72337;SDS011;60294;64.134;-21.862;2022-12-07T05:01:08;5.37;;;0.77;;
72337;SDS011;60294;64.134;-21.862;2022-12-07T05:03:35;2.00;;;0.87;;
72337;SDS011;60294;64.134;-21.862;2022-12-07T05:06:02;5.67;;;0.83;;
72337;SDS011;60294;64.134;-21.862;2022-12-07T05:08:28;1.63;;;0.50;;
72337;SDS011;60294;64.134;-21.862;2022-12-07T05:10:54;0.93;;;0.47;;
72337;SDS011;60294;64.134;-21.862;2022-12-07T05:13:20;1.27;;;0.73;;
72337;SDS011;60294;64.134;-21.862;2022-12-07T05:15:46;0.73;;;0.47;;
72337;SDS011;60294;64.134;-21.862;2022-12-07T05:18:13;0.40;;;0.27;;
72337;SDS011;60294;64.134;-21.862;2022-12-07T05:20:39;0.20;;;0.20;;
72337;SDS011;60294;64.134;-21.862;2022-12-07T05:23:05;0.70;;;0.30;;
72337;SDS011;60294;64.134;-21.862;2022-12-07T05:25:31;0.93;;;0.40;;
72337;SDS011;60294;64.134;-21.862;2022-12-07T05:27:57;3.77;;;0.33;;
72337;SDS011;60294;64.134;-21.862;2022-12-07T05:30:24;0.30;;;0.30;;
72337;SDS011;60294;64.134;-21.862;2022-12-07T05:32:50;1.67;;;0.40;;
72337;SDS011;60294;64.134;-21.862;2022-12-07T05:35:17;0.20;;;0.20;;
72337;SDS011;60294;64.134;-21.862;2022-12-07T05:37:43;1.13;;;0.63;;
72337;SDS011;60294;64.134;-21.862;2022-12-07T05:40:10;1.53;;;0.60;;
72337;SDS011;60294;64.134;-21.862;2022-12-07T05:42:36;1.27;;;0.70;;
72337;SDS011;60294;64.134;-21.862;2022-12-07T05:45:03;0.87;;;0.60;;
72337;SDS011;60294;64.134;-21.862;2022-12-07T05:47:29;1.53;;;0.70;;
72337;SDS011;60294;64.134;-21.862;2022-12-07T05:49:55;2.63;;;1.03;;
72337;SDS011;60294;64.134;-21.862;2022-12-07T05:52:21;3.37;;;0.93;;
72337;SDS011;60294;64.134;-21.862;2022-12-07T05:54:47;1.83;;;1.00;;
72337;SDS011;60294;64.134;-21.862;2022-12-07T05:57:13;4.17;;;1.13;;
72337;SDS011;60294;64.134;-21.862;2022-12-07T05:59:39;0.83;;;0.60;;
72337;SDS011;60294;64.134;-21.862;2022-12-07T06:02:09;0.97;;;0.60;;
72337;SDS011;60294;64.134;-21.862;2022-12-07T06:04:38;4.65;;;1.15;;
72337;SDS011;60294;64.134;-21.862;2022-12-07T06:07:06;1.20;;;0.83;;
72337;SDS011;60294;64.134;-21.862;2022-12-07T06:09:33;4.93;;;0.90;;
72337;SDS011;60294;64.134;-21.862;2022-12-07T06:11:59;2.37;;;0.63;;
72337;SDS011;60294;64.134;-21.862;2022-12-07T06:14:44;1.40;;;0.90;;
72337;SDS011;60294;64.134;-21.862;2022-12-07T06:17:11;1.77;;;0.97;;
72337;SDS011;60294;64.134;-21.862;2022-12-07T06:19:37;2.60;;;0.80;;
72337;SDS011;60294;64.134;-21.862;2022-12-07T06:22:03;1.47;;;0.60;;
72337;SDS011;60294;64.134;-21.862;2022-12-07T06:24:30;3.77;;;0.70;;
72337;SDS011;60294;64.134;-21.862;2022-12-07T06:26:57;1.93;;;0.80;;
72337;SDS011;60294;64.134;-21.862;2022-12-07T06:29:23;3.80;;;1.17;;
72337;SDS011;60294;64.134;-21.862;2022-12-07T06:31:48;2.27;;;1.23;;
72337;SDS011;60294;64.134;-21.862;2022-12-07T06:34:18;4.10;;;1.10;;
72337;SDS011;60294;64.134;-21.862;2022-12-07T06:36:45;2.87;;;0.97;;
72337;SDS011;60294;64.134;-21.862;2022-12-07T06:39:16;1.80;;;0.73;;
72337;SDS011;60294;64.134;-21.862;2022-12-07T06:41:43;1.60;;;0.70;;
72337;SDS011;60294;64.134;-21.862;2022-12-07T06:44:09;2.30;;;0.60;;
72337;SDS011;60294;64.134;-21.862;2022-12-07T06:46:35;1.97;;;0.77;;
72337;SDS011;60294;64.134;-21.862;2022-12-07T06:49:01;2.30;;;0.90;;
72337;SDS011;60294;64.134;-21.862;2022-12-07T06:51:27;2.87;;;1.00;;
72337;SDS011;60294;64.134;-21.862;2022-12-07T06:53:53;2.57;;;0.90;;
72337;SDS011;60294;64.134;-21.862;2022-12-07T06:56:19;1.73;;;0.90;;
72337;SDS011;60294;64.134;-21.862;2022-12-07T06:58:45;3.23;;;0.73;;
72337;SDS011;60294;64.134;-21.862;2022-12-07T07:01:15;1.87;;;0.67;;
72337;SDS011;60294;64.134;-21.862;2022-12-07T07:03:43;3.23;;;1.23;;
72337;SDS011;60294;64.134;-21.862;2022-12-07T07:06:10;1.83;;;0.63;;
72337;SDS011;60294;64.134;-21.862;2022-12-07T07:08:37;1.93;;;0.67;;
72337;SDS011;60294;64.134;-21.862;2022-12-07T07:11:03;1.50;;;0.77;;
72337;SDS011;60294;64.134;-21.862;2022-12-07T07:13:30;2.97;;;0.83;;
72337;SDS011;60294;64.134;-21.862;2022-12-07T07:15:56;1.53;;;0.63;;
72337;SDS011;60294;64.134;-21.862;2022-12-07T07:18:22;3.00;;;0.90;;
72337;SDS011;60294;64.134;-21.862;2022-12-07T07:20:49;2.10;;;1.00;;
72337;SDS011;60294;64.134;-21.862;2022-12-07T07:23:16;2.23;;;0.87;;
72337;SDS011;60294;64.134;-21.862;2022-12-07T07:25:42;6.00;;;1.17;;
72337;SDS011;60294;64.134;-21.862;2022-12-07T07:28:07;2.67;;;0.93;;
72337;SDS011;60294;64.134;-21.862;2022-12-07T07:30:33;6.67;;;1.30;;
72337;SDS011;60294;64.134;-21.862;2022-12-07T07:32:59;3.43;;;0.80;;
72337;SDS011;60294;64.134;-21.862;2022-12-07T07:35:28;0.73;;;0.60;;
72337;SDS011;60294;64.134;-21.862;2022-12-07T07:37:55;2.47;;;0.90;;
72337;SDS011;60294;64.134;-21.862;2022-12-07T07:40:21;3.00;;;1.00;;
72337;SDS011;60294;64.134;-21.862;2022-12-07T07:42:50;1.77;;;0.87;;
72337;SDS011;60294;64.134;-21.862;2022-12-07T07:45:17;2.97;;;1.00;;
72337;SDS011;60294;64.134;-21.862;2022-12-07T07:47:44;2.17;;;0.90;;
72337;SDS011;60294;64.134;-21.862;2022-12-07T07:50:10;2.57;;;0.90;;
72337;SDS011;60294;64.134;-21.862;2022-12-07T07:52:36;2.67;;;0.90;;
72337;SDS011;60294;64.134;-21.862;2022-12-07T07:55:02;7.87;;;1.00;;
72337;SDS011;60294;64.134;-21.862;2022-12-07T07:57:28;2.73;;;0.80;;
72337;SDS011;60294;64.134;-21.862;2022-12-07T07:59:54;2.03;;;0.93;;
72337;SDS011;60294;64.134;-21.862;2022-12-07T08:02:20;2.03;;;0.90;;
72337;SDS011;60294;64.134;-21.862;2022-12-07T08:04:47;1.63;;;0.70;;
72337;SDS011;60294;64.134;-21.862;2022-12-07T08:07:13;1.83;;;0.63;;
72337;SDS011;60294;64.134;-21.862;2022-12-07T08:09:39;0.83;;;0.63;;
72337;SDS011;60294;64.134;-21.862;2022-12-07T08:12:05;3.70;;;0.90;;
72337;SDS011;60294;64.134;-21.862;2022-12-07T08:14:31;2.90;;;1.10;;
72337;SDS011;60294;64.134;-21.862;2022-12-07T08:16:59;1.97;;;1.03;;
72337;SDS011;60294;64.134;-21.862;2022-12-07T08:19:25;1.77;;;0.87;;
72337;SDS011;60294;64.134;-21.862;2022-12-07T08:21:50;2.30;;;0.53;;
72337;SDS011;60294;64.134;-21.862;2022-12-07T08:24:17;3.97;;;0.77;;
72337;SDS011;60294;64.134;-21.862;2022-12-07T08:26:43;9.43;;;0.70;;
72337;SDS011;60294;64.134;-21.862;2022-12-07T08:29:09;1.50;;;0.63;;
72337;SDS011;60294;64.134;-21.862;2022-12-07T08:31:34;1.13;;;0.70;;
72337;SDS011;60294;64.134;-21.862;2022-12-07T08:34:00;2.07;;;0.77;;
72337;SDS011;60294;64.134;-21.862;2022-12-07T08:36:26;2.73;;;0.90;;
72337;SDS011;60294;64.134;-21.862;2022-12-07T08:38:52;2.87;;;0.83;;
72337;SDS011;60294;64.134;-21.862;2022-12-07T08:41:18;3.00;;;0.77;;
72337;SDS011;60294;64.134;-21.862;2022-12-07T08:43:44;2.33;;;1.07;;
72337;SDS011;60294;64.134;-21.862;2022-12-07T08:48:36;2.57;;;0.80;;
72337;SDS011;60294;64.134;-21.862;2022-12-07T08:51:13;1.10;;;0.60;;
72337;SDS011;60294;64.134;-21.862;2022-12-07T08:53:39;1.33;;;0.60;;
72337;SDS011;60294;64.134;-21.862;2022-12-07T08:56:05;1.80;;;0.40;;
72337;SDS011;60294;64.134;-21.862;2022-12-07T08:58:33;0.83;;;0.50;;
72337;SDS011;60294;64.134;-21.862;2022-12-07T09:01:00;1.30;;;0.60;;
72337;SDS011;60294;64.134;-21.862;2022-12-07T09:03:26;0.60;;;0.50;;
72337;SDS011;60294;64.134;-21.862;2022-12-07T09:05:52;0.83;;;0.57;;
72337;SDS011;60294;64.134;-21.862;2022-12-07T09:08:19;0.40;;;0.40;;
72337;SDS011;60294;64.134;-21.862;2022-12-07T09:10:46;1.17;;;0.40;;
72337;SDS011;60294;64.134;-21.862;2022-12-07T09:13:12;1.67;;;0.80;;
72337;SDS011;60294;64.134;-21.862;2022-12-07T09:15:38;2.10;;;0.37;;
72337;SDS011;60294;64.134;-21.862;2022-12-07T09:18:04;0.90;;;0.53;;
72337;SDS011;60294;64.134;-21.862;2022-12-07T09:20:30;0.77;;;0.57;;
72337;SDS011;60294;64.134;-21.862;2022-12-07T09:22:56;1.07;;;0.67;;
72337;SDS011;60294;64.134;-21.862;2022-12-07T09:25:22;0.57;;;0.53;;
72337;SDS011;60294;64.134;-21.862;2022-12-07T09:27:48;0.67;;;0.40;;
72337;SDS011;60294;64.134;-21.862;2022-12-07T09:30:19;0.30;;;0.30;;
72337;SDS011;60294;64.134;-21.862;2022-12-07T09:32:45;0.80;;;0.47;;
72337;SDS011;60294;64.134;-21.862;2022-12-07T09:35:11;0.50;;;0.40;;
72337;SDS011;60294;64.134;-21.862;2022-12-07T09:37:37;2.00;;;0.30;;
72337;SDS011;60294;64.134;-21.862;2022-12-07T09:40:03;2.90;;;0.60;;
72337;SDS011;60294;64.134;-21.862;2022-12-07T09:42:32;0.20;;;0.20;;
72337;SDS011;60294;64.134;-21.862;2022-12-07T09:45:12;4.23;;;0.50;;
72337;SDS011;60294;64.134;-21.862;2022-12-07T09:47:40;0.83;;;0.30;;
72337;SDS011;60294;64.134;-21.862;2022-12-07T09:50:16;0.20;;;0.20;;
72337;SDS011;60294;64.134;-21.862;2022-12-07T09:52:47;0.20;;;0.20;;
72337;SDS011;60294;64.134;-21.862;2022-12-07T09:55:19;0.20;;;0.20;;
72337;SDS011;60294;64.134;-21.862;2022-12-07T09:57:56;0.43;;;0.30;;
72337;SDS011;60294;64.134;-21.862;2022-12-07T10:00:23;0.40;;;0.40;;
72337;SDS011;60294;64.134;-21.862;2022-12-07T10:02:53;0.33;;;0.20;;
72337;SDS011;60294;64.134;-21.862;2022-12-07T10:05:26;0.20;;;0.20;;
72337;SDS011;60294;64.134;-21.862;2022-12-07T10:07:57;0.20;;;0.20;;
72337;SDS011;60294;64.134;-21.862;2022-12-07T10:10:24;0.20;;;0.20;;
72337;SDS011;60294;64.134;-21.862;2022-12-07T10:12:59;0.87;;;0.30;;
72337;SDS011;60294;64.134;-21.862;2022-12-07T10:20:48;0.63;;;0.30;;
72337;SDS011;60294;64.134;-21.862;2022-12-07T10:23:15;0.87;;;0.20;;
72337;SDS011;60294;64.134;-21.862;2022-12-07T10:25:42;0.20;;;0.20;;
72337;SDS011;60294;64.134;-21.862;2022-12-07T10:28:18;0.20;;;0.20;;
72337;SDS011;60294;64.134;-21.862;2022-12-07T10:31:01;0.20;;;0.20;;
72337;SDS011;60294;64.134;-21.862;2022-12-07T10:33:53;0.50;;;0.30;;
72337;SDS011;60294;64.134;-21.862;2022-12-07T10:39:17;1.47;;;0.43;;
72337;SDS011;60294;64.134;-21.862;2022-12-07T10:41:58;0.30;;;0.30;;
72337;SDS011;60294;64.134;-21.862;2022-12-07T10:44:30;0.20;;;0.20;;
72337;SDS011;60294;64.134;-21.862;2022-12-07T10:55:19;0.40;;;0.30;;
72337;SDS011;60294;64.134;-21.862;2022-12-07T11:12:16;0.47;;;0.20;;
72337;SDS011;60294;64.134;-21.862;2022-12-07T11:14:52;0.20;;;0.20;;
72337;SDS011;60294;64.134;-21.862;2022-12-07T11:17:42;0.40;;;0.30;;
72337;SDS011;60294;64.134;-21.862;2022-12-07T11:20:32;0.20;;;0.20;;
72337;SDS011;60294;64.134;-21.862;2022-12-07T11:23:07;0.20;;;0.20;;
72337;SDS011;60294;64.134;-21.862;2022-12-07T11:29:13;0.20;;;0.20;;
72337;SDS011;60294;64.134;-21.862;2022-12-07T11:31:57;0.20;;;0.20;;
72337;SDS011;60294;64.134;-21.862;2022-12-07T11:37:31;1.13;;;0.30;;
72337;SDS011;60294;64.134;-21.862;2022-12-07T11:42:59;0.20;;;0.20;;
72337;SDS011;60294;64.134;-21.862;2022-12-07T11:45:35;1.90;;;0.40;;
72337;SDS011;60294;64.134;-21.862;2022-12-07T11:48:10;1.93;;;0.43;;
72337;SDS011;60294;64.134;-21.862;2022-12-07T11:50:40;0.67;;;0.43;;
72337;SDS011;60294;64.134;-21.862;2022-12-07T11:53:22;1.50;;;0.40;;
72337;SDS011;60294;64.134;-21.862;2022-12-07T11:55:56;0.47;;;0.20;;
72337;SDS011;60294;64.134;-21.862;2022-12-07T12:06:38;0.27;;;0.27;;
72337;SDS011;60294;64.134;-21.862;2022-12-07T12:20:06;0.93;;;0.43;;
72337;SDS011;60294;64.134;-21.862;2022-12-07T12:22:59;1.77;;;0.50;;
72337;SDS011;60294;64.134;-21.862;2022-12-07T12:25:42;0.93;;;0.60;;
72337;SDS011;60294;64.134;-21.862;2022-12-07T12:31:15;0.50;;;0.47;;
72337;SDS011;60294;64.134;-21.862;2022-12-07T12:33:47;1.53;;;0.50;;
72337;SDS011;60294;64.134;-21.862;2022-12-07T12:36:19;0.27;;;0.27;;
72337;SDS011;60294;64.134;-21.862;2022-12-07T12:44:08;2.13;;;0.70;;
72337;SDS011;60294;64.134;-21.862;2022-12-07T12:46:58;3.00;;;0.43;;
72337;SDS011;60294;64.134;-21.862;2022-12-07T12:54:24;0.33;;;0.30;;
72337;SDS011;60294;64.134;-21.862;2022-12-07T13:31:36;0.20;;;0.20;;
72337;SDS011;60294;64.134;-21.862;2022-12-07T13:37:24;1.10;;;0.60;;
72337;SDS011;60294;64.134;-21.862;2022-12-07T13:44:49;0.30;;;0.30;;
72337;SDS011;60294;64.134;-21.862;2022-12-07T13:47:20;0.40;;;0.37;;
72337;SDS011;60294;64.134;-21.862;2022-12-07T13:50:24;0.65;;;0.40;;
72337;SDS011;60294;64.134;-21.862;2022-12-07T13:52:55;0.30;;;0.27;;
72337;SDS011;60294;64.134;-21.862;2022-12-07T13:55:21;0.47;;;0.30;;
72337;SDS011;60294;64.134;-21.862;2022-12-07T13:57:49;0.40;;;0.30;;
72337;SDS011;60294;64.134;-21.862;2022-12-07T14:00:18;0.83;;;0.40;;
72337;SDS011;60294;64.134;-21.862;2022-12-07T14:02:56;0.30;;;0.30;;
72337;SDS011;60294;64.134;-21.862;2022-12-07T14:05:30;0.97;;;0.53;;
72337;SDS011;60294;64.134;-21.862;2022-12-07T14:07:58;0.97;;;0.73;;
72337;SDS011;60294;64.134;-21.862;2022-12-07T14:10:33;1.07;;;0.50;;
72337;SDS011;60294;64.134;-21.862;2022-12-07T14:13:01;1.00;;;0.70;;
72337;SDS011;60294;64.134;-21.862;2022-12-07T14:18:30;1.70;;;0.90;;
72337;SDS011;60294;64.134;-21.862;2022-12-07T14:21:13;2.47;;;1.17;;
72337;SDS011;60294;64.134;-21.862;2022-12-07T14:23:43;4.83;;;1.07;;
72337;SDS011;60294;64.134;-21.862;2022-12-07T14:28:39;5.27;;;1.40;;
72337;SDS011;60294;64.134;-21.862;2022-12-07T14:31:12;3.33;;;1.27;;
72337;SDS011;60294;64.134;-21.862;2022-12-07T14:33:42;2.50;;;1.03;;
72337;SDS011;60294;64.134;-21.862;2022-12-07T14:36:09;5.00;;;1.30;;
72337;SDS011;60294;64.134;-21.862;2022-12-07T14:38:37;3.67;;;1.10;;
72337;SDS011;60294;64.134;-21.862;2022-12-07T14:41:03;4.27;;;1.17;;
72337;SDS011;60294;64.134;-21.862;2022-12-07T14:43:49;2.77;;;0.97;;
72337;SDS011;60294;64.134;-21.862;2022-12-07T14:46:15;2.23;;;1.20;;
72337;SDS011;60294;64.134;-21.862;2022-12-07T14:48:41;3.10;;;1.07;;
72337;SDS011;60294;64.134;-21.862;2022-12-07T14:51:08;2.77;;;0.83;;
72337;SDS011;60294;64.134;-21.862;2022-12-07T14:53:39;4.30;;;1.10;;
72337;SDS011;60294;64.134;-21.862;2022-12-07T14:56:07;1.33;;;0.60;;
72337;SDS011;60294;64.134;-21.862;2022-12-07T14:58:33;0.40;;;0.33;;
72337;SDS011;60294;64.134;-21.862;2022-12-07T15:00:59;0.97;;;0.57;;
72337;SDS011;60294;64.134;-21.862;2022-12-07T15:03:25;1.90;;;0.60;;
72337;SDS011;60294;64.134;-21.862;2022-12-07T15:05:51;0.30;;;0.30;;
72337;SDS011;60294;64.134;-21.862;2022-12-07T15:08:17;2.43;;;0.50;;
72337;SDS011;60294;64.134;-21.862;2022-12-07T15:10:43;3.20;;;0.80;;
72337;SDS011;60294;64.134;-21.862;2022-12-07T15:13:09;2.00;;;0.50;;
72337;SDS011;60294;64.134;-21.862;2022-12-07T15:15:54;1.07;;;0.50;;
72337;SDS011;60294;64.134;-21.862;2022-12-07T15:18:20;0.90;;;0.40;;
72337;SDS011;60294;64.134;-21.862;2022-12-07T15:20:48;1.13;;;0.50;;
72337;SDS011;60294;64.134;-21.862;2022-12-07T15:23:14;1.87;;;0.40;;
72337;SDS011;60294;64.134;-21.862;2022-12-07T15:25:44;3.33;;;0.80;;
72337;SDS011;60294;64.134;-21.862;2022-12-07T15:28:11;2.40;;;0.50;;
72337;SDS011;60294;64.134;-21.862;2022-12-07T15:30:37;7.00;;;0.87;;
72337;SDS011;60294;64.134;-21.862;2022-12-07T15:33:03;9.30;;;0.60;;
72337;SDS011;60294;64.134;-21.862;2022-12-07T15:35:29;1.17;;;0.47;;
72337;SDS011;60294;64.134;-21.862;2022-12-07T15:37:55;0.57;;;0.40;;
72337;SDS011;60294;64.134;-21.862;2022-12-07T15:40:21;1.33;;;0.43;;
72337;SDS011;60294;64.134;-21.862;2022-12-07T15:42:46;0.40;;;0.40;;
72337;SDS011;60294;64.134;-21.862;2022-12-07T15:45:12;1.83;;;0.30;;
72337;SDS011;60294;64.134;-21.862;2022-12-07T15:47:42;2.20;;;0.63;;
72337;SDS011;60294;64.134;-21.862;2022-12-07T15:50:13;2.23;;;0.50;;
72337;SDS011;60294;64.134;-21.862;2022-12-07T15:52:41;3.40;;;0.90;;
72337;SDS011;60294;64.134;-21.862;2022-12-07T15:55:07;1.90;;;0.50;;
72337;SDS011;60294;64.134;-21.862;2022-12-07T15:57:35;0.67;;;0.40;;
72337;SDS011;60294;64.134;-21.862;2022-12-07T16:00:03;0.60;;;0.37;;
72337;SDS011;60294;64.134;-21.862;2022-12-07T16:02:29;3.93;;;0.60;;
72337;SDS011;60294;64.134;-21.862;2022-12-07T16:04:55;0.37;;;0.30;;
72337;SDS011;60294;64.134;-21.862;2022-12-07T16:07:21;2.13;;;0.23;;
72337;SDS011;60294;64.134;-21.862;2022-12-07T16:09:47;0.90;;;0.40;;
72337;SDS011;60294;64.134;-21.862;2022-12-07T16:12:14;0.30;;;0.30;;
72337;SDS011;60294;64.134;-21.862;2022-12-07T16:14:41;1.40;;;0.60;;
72337;SDS011;60294;64.134;-21.862;2022-12-07T16:17:07;4.57;;;0.70;;
72337;SDS011;60294;64.134;-21.862;2022-12-07T16:19:34;3.07;;;0.50;;
72337;SDS011;60294;64.134;-21.862;2022-12-07T16:22:01;0.47;;;0.33;;
72337;SDS011;60294;64.134;-21.862;2022-12-07T16:24:28;1.47;;;0.37;;
72337;SDS011;60294;64.134;-21.862;2022-12-07T16:26:54;0.60;;;0.50;;
72337;SDS011;60294;64.134;-21.862;2022-12-07T16:29:20;1.27;;;0.60;;
72337;SDS011;60294;64.134;-21.862;2022-12-07T16:31:47;1.43;;;0.73;;
72337;SDS011;60294;64.134;-21.862;2022-12-07T16:34:13;2.67;;;0.60;;
72337;SDS011;60294;64.134;-21.862;2022-12-07T16:36:39;2.00;;;0.70;;
72337;SDS011;60294;64.134;-21.862;2022-12-07T16:39:05;0.90;;;0.43;;
72337;SDS011;60294;64.134;-21.862;2022-12-07T16:41:31;0.73;;;0.40;;
72337;SDS011;60294;64.134;-21.862;2022-12-07T16:44:00;0.50;;;0.40;;
72337;SDS011;60294;64.134;-21.862;2022-12-07T16:46:31;0.37;;;0.33;;
72337;SDS011;60294;64.134;-21.862;2022-12-07T16:48:58;3.50;;;0.33;;
72337;SDS011;60294;64.134;-21.862;2022-12-07T16:51:24;0.80;;;0.40;;
72337;SDS011;60294;64.134;-21.862;2022-12-07T16:53:50;1.20;;;0.60;;
72337;SDS011;60294;64.134;-21.862;2022-12-07T16:56:18;3.00;;;0.50;;
72337;SDS011;60294;64.134;-21.862;2022-12-07T16:58:44;1.13;;;0.50;;
72337;SDS011;60294;64.134;-21.862;2022-12-07T17:01:12;1.87;;;0.60;;
72337;SDS011;60294;64.134;-21.862;2022-12-07T17:03:43;2.13;;;0.50;;
72337;SDS011;60294;64.134;-21.862;2022-12-07T17:08:42;0.67;;;0.40;;
72337;SDS011;60294;64.134;-21.862;2022-12-07T17:11:13;0.57;;;0.40;;
72337;SDS011;60294;64.134;-21.862;2022-12-07T17:13:42;1.30;;;0.30;;
72337;SDS011;60294;64.134;-21.862;2022-12-07T17:16:27;0.20;;;0.20;;
72337;SDS011;60294;64.134;-21.862;2022-12-07T17:18:53;0.53;;;0.33;;
72337;SDS011;60294;64.134;-21.862;2022-12-07T17:21:19;0.20;;;0.20;;
72337;SDS011;60294;64.134;-21.862;2022-12-07T17:23:45;1.13;;;0.30;;